Time;durP1;ratioP1;P1;durP2;ratioP2;P2;SDS_P1;SDS_P2;PMS_P1;PMS_P2;Temp;Humidity;BMP_temperature;BMP_pressure;BME280_temperature;BME280_humidity;BME280_pressure;Samples;Min_cycle;Max_cycle;Signal;HPM_P1;HPM_P2
2024/03/13 00:05:17;;;;;;;32.50;17.67;;;5.90;99.90;;;;;;12500989;28;20045;-80
2024/03/13 00:11:27;;;;;;;30.73;17.05;;;5.80;99.90;;;;;;12496837;28;20486;-80
2024/03/13 00:17:30;;;;;;;30.75;16.45;;;5.60;99.90;;;;;;12474201;28;20053;-81
2024/03/13 00:23:32;;;;;;;34.10;17.95;;;5.60;99.90;;;;;;12478032;28;20068;-81
2024/03/13 00:29:34;;;;;;;28.50;16.17;;;5.50;99.90;;;;;;12476458;28;20183;-80
2024/03/13 00:35:36;;;;;;;35.03;16.83;;;5.30;99.90;;;;;;12485915;28;20053;-80
2024/03/13 00:41:39;;;;;;;35.90;17.20;;;5.30;99.90;;;;;;12471622;28;20521;-81
2024/03/13 00:47:40;;;;;;;30.77;16.70;;;5.30;99.90;;;;;;12463497;28;20531;-80
2024/03/13 00:53:42;;;;;;;35.47;17.58;;;5.30;99.90;;;;;;12468005;28;20092;-80
2024/03/13 00:59:46;;;;;;;34.97;17.95;;;5.30;99.90;;;;;;12468740;28;20057;-80
2024/03/13 01:05:49;;;;;;;31.97;16.27;;;5.40;99.90;;;;;;12447119;28;20128;-80
2024/03/13 01:11:52;;;;;;;36.05;16.85;;;5.30;99.90;;;;;;12484137;28;20284;-81
2024/03/13 01:17:54;;;;;;;32.95;15.27;;;5.40;99.90;;;;;;12483660;28;20052;-80
2024/03/13 01:23:57;;;;;;;31.17;16.00;;;5.40;99.90;;;;;;12473200;28;20160;-80
2024/03/13 01:29:59;;;;;;;33.85;15.75;;;5.20;99.90;;;;;;12466539;28;20497;-78
2024/03/13 01:36:02;;;;;;;33.72;15.68;;;5.10;99.90;;;;;;12471162;28;20056;-77
2024/03/13 01:54:50;;;;;;;31.80;15.88;;;5.30;99.90;;;;;;12488427;28;20056;-78
2024/03/13 02:07:13;;;;;;;34.63;17.13;;;5.30;99.90;;;;;;12482641;28;20060;-77
2024/03/13 02:13:17;;;;;;;30.75;16.17;;;5.30;99.90;;;;;;12488778;28;20037;-78
2024/03/13 02:19:21;;;;;;;32.33;16.42;;;5.20;99.90;;;;;;12483643;28;20089;-77
2024/03/13 02:25:23;;;;;;;30.40;16.15;;;5.10;99.90;;;;;;12491383;28;20072;-77
2024/03/13 02:31:25;;;;;;;30.48;15.35;;;5.10;99.90;;;;;;12495787;28;20508;-78
2024/03/13 02:37:28;;;;;;;30.15;14.70;;;5.00;99.90;;;;;;12468464;28;20775;-77
2024/03/13 02:43:32;;;;;;;33.92;15.65;;;4.80;99.90;;;;;;12492276;28;20816;-81
2024/03/13 02:49:35;;;;;;;36.38;15.05;;;4.60;99.90;;;;;;12466736;28;20042;-80
2024/03/13 02:55:38;;;;;;;35.35;15.88;;;4.50;99.90;;;;;;12473207;28;20069;-80
2024/03/13 03:01:40;;;;;;;36.15;16.58;;;4.60;99.90;;;;;;12461656;28;20076;-81
2024/03/13 03:07:43;;;;;;;31.50;15.88;;;4.60;99.90;;;;;;12478065;28;20053;-81
2024/03/13 03:13:46;;;;;;;31.90;16.05;;;4.60;99.90;;;;;;12461584;28;20140;-79
2024/03/13 03:19:51;;;;;;;31.20;15.63;;;4.50;99.90;;;;;;12477887;28;20498;-81
2024/03/13 03:25:53;;;;;;;35.83;16.38;;;4.40;99.90;;;;;;12488729;28;20038;-81
2024/03/13 03:31:55;;;;;;;32.15;15.20;;;4.40;99.90;;;;;;12485143;28;20184;-79
2024/03/13 03:37:57;;;;;;;30.95;15.73;;;4.40;99.90;;;;;;12492423;28;20140;-80
2024/03/13 03:43:59;;;;;;;29.95;14.48;;;4.40;99.90;;;;;;12479659;28;20651;-79
2024/03/13 03:50:02;;;;;;;27.58;13.65;;;4.40;99.90;;;;;;12472416;28;20136;-79
2024/03/13 03:56:04;;;;;;;30.65;14.05;;;4.50;99.90;;;;;;12484781;28;20047;-79
2024/03/13 04:02:06;;;;;;;28.95;13.63;;;4.40;99.90;;;;;;12479138;28;20115;-79
2024/03/13 04:08:08;;;;;;;30.85;13.23;;;4.40;99.90;;;;;;12502138;28;20556;-79
2024/03/13 04:14:11;;;;;;;26.27;13.40;;;4.60;99.90;;;;;;12500993;28;20042;-79
2024/03/13 04:20:19;;;;;;;27.35;12.90;;;4.50;99.90;;;;;;12481203;28;20050;-79
2024/03/13 04:26:21;;;;;;;24.63;12.20;;;4.50;99.90;;;;;;12474794;28;20079;-79
2024/03/13 04:32:23;;;;;;;26.67;13.63;;;4.60;99.90;;;;;;12478885;28;20073;-82
2024/03/13 04:38:25;;;;;;;33.88;14.60;;;4.60;99.90;;;;;;12463353;28;20048;-80
2024/03/13 04:44:28;;;;;;;28.13;13.95;;;4.60;99.90;;;;;;12467784;28;20140;-79
2024/03/13 04:50:30;;;;;;;29.48;14.18;;;4.70;99.90;;;;;;12471903;28;20169;-80
2024/03/13 04:56:32;;;;;;;31.67;15.50;;;4.70;99.90;;;;;;12468990;28;20053;-79
2024/03/13 05:02:34;;;;;;;29.58;14.98;;;4.80;99.90;;;;;;12469513;28;20136;-80
2024/03/13 05:08:40;;;;;;;31.52;14.90;;;4.90;99.90;;;;;;12497390;28;20351;-80
2024/03/13 05:14:42;;;;;;;26.23;14.00;;;5.00;99.90;;;;;;12490699;28;20128;-80
2024/03/13 05:20:44;;;;;;;29.48;13.85;;;5.10;99.90;;;;;;12486193;28;20100;-81
2024/03/13 05:26:46;;;;;;;27.52;14.18;;;5.20;99.90;;;;;;12482667;28;20052;-80
2024/03/13 05:32:48;;;;;;;29.13;13.93;;;5.20;99.90;;;;;;12475079;28;20049;-81
2024/03/13 05:38:50;;;;;;;28.52;14.48;;;5.20;99.90;;;;;;12471010;28;20056;-80
2024/03/13 05:44:52;;;;;;;26.92;14.30;;;5.20;99.90;;;;;;12467237;28;20075;-81
2024/03/13 05:50:54;;;;;;;25.15;13.15;;;5.10;99.90;;;;;;12467864;28;20041;-80
2024/03/13 05:56:56;;;;;;;28.33;13.93;;;5.20;99.90;;;;;;12465707;28;20132;-80
2024/03/13 06:02:58;;;;;;;28.80;13.93;;;5.20;99.90;;;;;;12481029;28;20045;-80
2024/03/13 06:08:59;;;;;;;27.35;14.35;;;5.30;99.90;;;;;;12469338;28;20077;-80
2024/03/13 06:15:07;;;;;;;27.15;14.48;;;5.40;99.90;;;;;;12473936;28;20056;-78
2024/03/13 06:21:10;;;;;;;25.23;12.90;;;5.40;99.90;;;;;;12487527;28;20053;-78
2024/03/13 06:27:15;;;;;;;25.77;13.32;;;5.40;99.90;;;;;;12471936;28;20042;-79
2024/03/13 06:33:17;;;;;;;23.20;13.23;;;5.60;99.90;;;;;;12474557;28;20541;-79
2024/03/13 06:39:21;;;;;;;23.90;12.73;;;5.70;99.90;;;;;;12471593;28;20060;-78
2024/03/13 06:45:23;;;;;;;23.35;12.65;;;5.90;99.90;;;;;;12478844;28;20049;-78
2024/03/13 06:51:40;;;;;;;20.88;11.88;;;6.10;99.90;;;;;;12471767;28;20049;-78
2024/03/13 06:57:42;;;;;;;22.08;12.77;;;6.20;99.90;;;;;;12467288;28;20139;-78
2024/03/13 07:03:44;;;;;;;25.83;13.52;;;6.30;99.90;;;;;;12490714;28;20110;-81
2024/03/13 07:09:48;;;;;;;21.17;13.18;;;6.40;99.90;;;;;;12507313;28;20052;-82
2024/03/13 07:15:50;;;;;;;20.50;13.45;;;6.50;99.90;;;;;;12485543;28;20045;-81
2024/03/13 07:21:52;;;;;;;20.85;12.57;;;6.50;99.90;;;;;;12495471;28;20057;-78
2024/03/13 07:27:56;;;;;;;23.83;13.73;;;6.60;99.90;;;;;;12483842;28;20045;-79
2024/03/13 07:33:58;;;;;;;20.98;12.93;;;6.60;99.90;;;;;;12497170;28;20125;-78
2024/03/13 07:40:00;;;;;;;21.05;12.45;;;6.60;99.90;;;;;;12471243;28;20053;-78
2024/03/13 07:46:02;;;;;;;18.58;13.15;;;6.80;99.90;;;;;;12494786;28;20525;-79
2024/03/13 07:52:04;;;;;;;17.70;13.00;;;6.90;99.90;;;;;;12500445;28;20049;-79
2024/03/13 07:58:06;;;;;;;17.02;12.32;;;7.20;99.90;;;;;;12502270;28;20045;-80
2024/03/13 08:04:08;;;;;;;16.40;12.85;;;7.20;99.90;;;;;;12480439;28;20048;-78
2024/03/13 08:10:11;;;;;;;18.63;13.57;;;7.40;99.90;;;;;;12487476;28;20106;-81
2024/03/13 08:16:30;;;;;;;15.23;13.50;;;7.60;99.90;;;;;;12488948;28;20067;-81
2024/03/13 08:22:50;;;;;;;18.73;15.35;;;7.80;99.90;;;;;;12490883;28;20049;-81
2024/03/13 08:29:15;;;;;;;19.08;17.33;;;7.90;99.90;;;;;;12480662;28;20415;-82
2024/03/13 08:35:34;;;;;;;17.10;15.32;;;7.90;99.90;;;;;;12480830;28;20488;-78
2024/03/13 08:41:59;;;;;;;17.30;15.60;;;8.00;99.90;;;;;;12477633;28;20043;-80
2024/03/13 08:48:19;;;;;;;18.90;17.08;;;8.10;99.90;;;;;;12494624;28;20501;-80
2024/03/13 08:54:41;;;;;;;24.95;22.55;;;8.20;99.90;;;;;;12488963;28;20128;-80
2024/03/13 09:01:00;;;;;;;17.48;15.63;;;8.30;99.90;;;;;;12460985;28;20176;-80
2024/03/13 09:07:20;;;;;;;18.10;16.15;;;8.40;99.90;;;;;;12510255;28;20056;-81
2024/03/13 09:13:23;;;;;;;22.17;20.10;;;8.60;99.90;;;;;;12486066;28;20049;-80
2024/03/13 09:19:25;;;;;;;27.83;25.58;;;8.90;99.90;;;;;;12493654;28;20064;-81
2024/03/13 09:25:27;;;;;;;30.25;28.02;;;9.20;99.90;;;;;;12488359;28;20088;-81
2024/03/13 09:31:30;;;;;;;28.23;26.02;;;9.30;99.90;;;;;;12482448;28;20053;-81
2024/03/13 09:37:32;;;;;;;34.10;31.70;;;9.40;99.90;;;;;;12463389;28;20072;-80
2024/03/13 09:43:36;;;;;;;35.20;32.67;;;9.50;99.90;;;;;;12497307;28;20049;-81
2024/03/13 09:49:42;;;;;;;35.85;33.35;;;9.50;99.90;;;;;;12498778;28;20091;-81
2024/03/13 09:55:45;;;;;;;38.58;35.83;;;9.60;99.90;;;;;;12475117;28;20058;-82
2024/03/13 10:01:49;;;;;;;38.20;35.40;;;9.70;99.90;;;;;;12481775;28;20049;-83
2024/03/13 10:07:53;;;;;;;32.73;30.43;;;9.60;99.90;;;;;;12467478;28;20041;-82
2024/03/13 10:13:55;;;;;;;37.90;35.33;;;9.50;99.90;;;;;;12474958;28;20073;-81
2024/03/13 10:19:58;;;;;;;41.35;38.40;;;9.60;99.90;;;;;;12531730;28;20052;-81
2024/03/13 10:26:00;;;;;;;42.83;39.72;;;9.70;99.90;;;;;;12521770;28;20060;-82
2024/03/13 10:32:04;;;;;;;39.10;36.10;;;9.60;99.90;;;;;;12517496;28;20047;-80
2024/03/13 10:38:12;;;;;;;39.38;36.30;;;9.70;99.90;;;;;;12490745;28;20056;-80
2024/03/13 10:44:14;;;;;;;41.85;38.78;;;9.80;99.90;;;;;;12501362;28;20433;-80
2024/03/13 10:50:16;;;;;;;39.17;36.45;;;9.90;99.90;;;;;;12485033;28;20053;-80
2024/03/13 10:56:18;;;;;;;37.72;34.90;;;9.90;99.90;;;;;;12511573;28;20136;-80
2024/03/13 11:02:20;;;;;;;41.05;38.42;;;10.10;99.90;;;;;;12489666;28;20081;-82
2024/03/13 11:08:22;;;;;;;47.53;44.63;;;10.10;99.90;;;;;;12486077;28;20060;-82
2024/03/13 11:14:27;;;;;;;48.40;45.20;;;10.10;99.90;;;;;;12483186;28;20069;-82
2024/03/13 11:20:37;;;;;;;49.03;46.08;;;10.00;99.90;;;;;;12492413;28;20064;-82
2024/03/13 11:26:40;;;;;;;48.38;45.45;;;10.30;99.90;;;;;;12505877;28;20481;-83
2024/03/13 11:32:44;;;;;;;50.97;48.05;;;10.40;99.90;;;;;;12483897;28;20037;-82
2024/03/13 11:38:46;;;;;;;61.30;57.72;;;10.50;99.90;;;;;;12487453;28;20060;-82
2024/03/13 11:44:51;;;;;;;108.35;102.88;;;10.40;99.90;;;;;;12485225;28;20061;-83
2024/03/13 11:51:08;;;;;;;41.47;38.97;;;10.40;99.90;;;;;;12477007;28;20432;-83
2024/03/13 11:57:14;;;;;;;38.45;36.13;;;10.30;99.90;;;;;;12490060;28;20072;-84
2024/03/13 12:03:19;;;;;;;36.25;34.05;;;10.40;99.90;;;;;;12486054;28;20136;-82
2024/03/13 12:09:23;;;;;;;31.50;29.42;;;10.30;99.90;;;;;;12491405;28;20045;-82
2024/03/13 12:15:25;;;;;;;70.87;66.97;;;10.30;99.90;;;;;;12482989;28;20049;-82
2024/03/13 12:21:28;;;;;;;37.85;35.58;;;10.40;99.90;;;;;;12511367;28;20140;-83
2024/03/13 12:27:31;;;;;;;57.63;54.47;;;10.70;99.90;;;;;;12470759;28;20088;-82
2024/03/13 12:33:34;;;;;;;87.05;82.40;;;10.50;99.90;;;;;;12476954;28;20053;-83
2024/03/13 12:39:36;;;;;;;44.58;42.00;;;10.50;99.90;;;;;;12465705;28;20394;-83
2024/03/13 12:45:38;;;;;;;44.50;41.92;;;10.40;99.90;;;;;;12480898;28;20505;-82
2024/03/13 12:51:39;;;;;;;46.40;43.60;;;10.40;99.90;;;;;;12472733;28;20084;-80
2024/03/13 12:57:41;;;;;;;42.95;40.22;;;10.50;99.90;;;;;;12471590;28;20381;-81
2024/03/13 13:03:43;;;;;;;42.72;40.13;;;10.50;99.90;;;;;;12466834;28;20489;-81
2024/03/13 13:09:49;;;;;;;39.13;36.65;;;10.60;99.90;;;;;;12499461;28;20084;-81
2024/03/13 13:15:51;;;;;;;40.05;37.58;;;10.50;99.90;;;;;;12467936;28;20064;-81
2024/03/13 13:21:53;;;;;;;38.35;35.85;;;10.60;99.90;;;;;;12492065;28;20061;-81
2024/03/13 13:28:01;;;;;;;48.92;45.70;;;10.60;99.90;;;;;;12673280;27;20379;-36
2024/03/13 13:34:04;;;;;;;47.33;44.42;;;10.60;99.90;;;;;;12657671;28;20041;-35
2024/03/13 13:40:20;;;;;;;52.65;49.28;;;10.70;99.90;;;;;;12641854;28;20054;-35
2024/03/13 13:46:22;;;;;;;48.47;45.42;;;10.70;99.90;;;;;;12655154;28;20080;-36
2024/03/13 13:52:24;;;;;;;55.10;51.58;;;10.70;99.90;;;;;;12661138;28;20048;-35
2024/03/13 13:58:26;;;;;;;53.13;49.60;;;10.60;99.90;;;;;;12658904;28;20437;-35
2024/03/13 14:04:29;;;;;;;51.97;48.55;;;10.70;99.90;;;;;;12665810;28;20533;-35
2024/03/13 14:10:31;;;;;;;53.42;50.13;;;10.80;99.90;;;;;;12651120;28;20051;-35
2024/03/13 14:16:34;;;;;;;59.33;55.53;;;10.90;99.90;;;;;;12659837;28;20052;-36
2024/03/13 14:22:44;;;;;;;62.13;58.20;;;10.90;99.90;;;;;;12610613;28;20075;-36
2024/03/13 14:28:47;;;;;;;67.72;63.63;;;11.00;99.90;;;;;;12603822;28;20045;-36
2024/03/13 14:34:51;;;;;;;67.50;63.40;;;10.90;99.90;;;;;;12576539;28;20057;-36
2024/03/13 14:41:02;;;;;;;66.05;61.97;;;10.90;99.90;;;;;;12567381;28;20115;-36
2024/03/13 14:47:04;;;;;;;76.57;72.20;;;11.00;99.90;;;;;;12573609;28;20127;-35
2024/03/13 14:53:08;;;;;;;87.38;82.30;;;10.90;99.90;;;;;;12561486;23;20053;-77
2024/03/13 14:59:13;;;;;;;87.13;81.82;;;10.90;99.90;;;;;;12542822;28;20502;-77
2024/03/13 15:05:15;;;;;;;;;;;10.80;99.90;;;;;;12539210;28;20687;-77
2024/03/13 15:11:18;;;;;;;39.13;35.83;;;10.90;99.90;;;;;;12524230;28;19929;-77
2024/03/13 15:17:23;;;;;;;40.33;36.33;;;10.80;99.90;;;;;;12516191;28;20417;-77
2024/03/13 15:23:29;;;;;;;42.88;38.97;;;10.80;99.90;;;;;;12536340;28;20083;-77
2024/03/13 15:29:34;;;;;;;41.03;37.33;;;10.80;99.90;;;;;;12533052;28;20049;-77
2024/03/13 15:35:38;;;;;;;39.33;35.80;;;10.80;99.90;;;;;;12518637;28;20053;-77
2024/03/13 15:41:40;;;;;;;48.15;44.35;;;10.80;99.90;;;;;;12555404;28;20044;-78
2024/03/13 15:47:44;;;;;;;;;;;10.70;99.90;;;;;;12538928;28;20033;-77
2024/03/13 15:53:49;;;;;;;44.70;40.53;;;10.80;99.90;;;;;;12538554;28;20011;-77
2024/03/13 15:59:51;;;;;;;46.70;42.13;;;10.70;99.90;;;;;;12522616;28;20049;-77
2024/03/13 16:05:53;;;;;;;47.22;42.08;;;10.70;99.90;;;;;;12529921;28;20096;-77
2024/03/13 16:11:55;;;;;;;55.22;48.25;;;10.70;99.90;;;;;;12530651;28;20534;-77
2024/03/13 16:17:57;;;;;;;59.30;47.50;;;10.70;99.90;;;;;;12527769;28;20172;-77
2024/03/13 16:24:00;;;;;;;57.58;46.65;;;10.70;99.90;;;;;;12525143;28;20049;-77
2024/03/13 16:30:06;;;;;;;55.90;41.85;;;10.60;99.90;;;;;;12526219;28;20052;-77
2024/03/13 16:36:08;;;;;;;47.60;36.92;;;10.50;99.90;;;;;;12525041;28;20429;-77
2024/03/13 16:42:10;;;;;;;57.42;51.72;;;10.60;99.90;;;;;;12533664;28;20063;-77
2024/03/13 16:48:12;;;;;;;57.85;52.10;;;10.60;99.90;;;;;;12529238;28;21466;-77
2024/03/13 16:54:14;;;;;;;59.10;54.13;;;10.60;99.90;;;;;;12536067;28;20055;-78
2024/03/13 17:00:16;;;;;;;61.50;56.28;;;10.60;99.90;;;;;;12516545;28;20091;-77
2024/03/13 17:06:21;;;;;;;67.10;61.58;;;10.50;99.90;;;;;;12511691;28;20183;-77
2024/03/13 17:12:26;;;;;;;67.00;61.63;;;10.50;99.90;;;;;;12520248;28;20048;-77
2024/03/13 17:18:28;;;;;;;68.18;63.03;;;10.50;99.90;;;;;;12511316;28;20136;-77
2024/03/13 17:24:31;;;;;;;73.70;68.63;;;10.50;99.90;;;;;;12492131;28;20056;-78
2024/03/13 17:30:33;;;;;;;77.40;72.30;;;10.50;99.90;;;;;;12534456;28;20098;-77
2024/03/13 17:36:35;;;;;;;104.93;98.97;;;10.50;99.90;;;;;;12510550;28;20420;-77
2024/03/13 17:42:37;;;;;;;65.15;60.40;;;10.40;99.90;;;;;;12503976;28;20524;-77
2024/03/13 17:48:39;;;;;;;58.35;54.22;;;10.40;99.90;;;;;;12505382;28;20553;-77
2024/03/13 17:54:41;;;;;;;53.45;49.15;;;10.30;99.90;;;;;;12500409;28;20049;-77
2024/03/13 18:00:43;;;;;;;48.13;44.28;;;10.30;99.90;;;;;;12527651;28;20425;-77
2024/03/13 18:06:46;;;;;;;44.50;40.92;;;10.20;99.90;;;;;;12523014;28;20052;-77
2024/03/13 18:12:48;;;;;;;41.38;37.72;;;10.20;99.90;;;;;;12524149;28;20054;-78
2024/03/13 18:18:50;;;;;;;42.15;38.63;;;10.10;99.90;;;;;;12512011;28;20460;-78
2024/03/13 18:24:54;;;;;;;39.00;35.40;;;10.10;99.90;;;;;;12533907;28;20049;-78
2024/03/13 18:30:56;;;;;;;33.83;30.03;;;10.10;99.90;;;;;;12531628;28;20061;-77
2024/03/13 18:36:58;;;;;;;29.45;26.50;;;10.00;99.90;;;;;;12526757;28;20041;-78
2024/03/13 18:43:00;;;;;;;29.20;26.48;;;10.00;99.90;;;;;;12519196;28;20046;-78
2024/03/13 18:49:03;;;;;;;30.35;27.42;;;10.00;99.90;;;;;;12532472;28;20060;-78
2024/03/13 18:55:05;;;;;;;28.25;25.15;;;10.00;99.90;;;;;;12529637;28;20052;-78
2024/03/13 19:01:07;;;;;;;31.88;28.70;;;10.00;99.90;;;;;;12520412;28;20758;-77
2024/03/13 19:07:11;;;;;;;29.95;26.08;;;10.00;99.90;;;;;;12516827;28;20041;-78
2024/03/13 19:13:13;;;;;;;32.33;28.85;;;10.00;99.90;;;;;;12511357;28;20416;-78
2024/03/13 19:19:15;;;;;;;29.83;26.75;;;10.00;99.90;;;;;;12517182;28;20115;-78
2024/03/13 19:25:17;;;;;;;35.08;29.27;;;10.00;99.90;;;;;;12527763;28;20049;-78
2024/03/13 19:31:20;;;;;;;33.75;30.02;;;10.00;99.90;;;;;;12516328;28;20056;-77
2024/03/13 19:37:32;;;;;;;37.40;33.42;;;10.00;99.90;;;;;;12516946;28;20057;-78
2024/03/13 19:43:35;;;;;;;39.17;31.20;;;10.00;99.90;;;;;;12543799;28;20049;-78
2024/03/13 19:49:37;;;;;;;44.83;40.20;;;10.00;99.90;;;;;;12521966;28;20059;-78
2024/03/13 19:55:39;;;;;;;39.70;31.17;;;10.00;99.90;;;;;;12521632;28;20053;-78
2024/03/13 20:01:41;;;;;;;36.92;30.33;;;10.00;99.90;;;;;;12533174;28;20068;-78
2024/03/13 20:07:43;;;;;;;43.97;32.45;;;10.00;99.90;;;;;;12518569;28;20079;-78
2024/03/13 20:13:45;;;;;;;40.55;31.50;;;10.00;99.90;;;;;;12526426;28;20424;-78
2024/03/13 20:19:47;;;;;;;44.53;32.38;;;10.10;99.90;;;;;;12521137;28;20077;-78
2024/03/13 20:25:49;;;;;;;42.00;32.15;;;10.10;99.90;;;;;;12520582;28;20504;-78
2024/03/13 20:31:52;;;;;;;50.63;32.72;;;10.10;99.90;;;;;;12525839;28;20048;-78
2024/03/13 20:37:54;;;;;;;50.85;33.63;;;10.10;99.90;;;;;;12521819;28;20052;-78
2024/03/13 20:43:57;;;;;;;54.13;37.17;;;10.10;99.90;;;;;;12520986;28;20055;-78
2024/03/13 20:50:00;;;;;;;52.97;40.20;;;10.20;99.90;;;;;;12533729;28;20504;-78
2024/03/13 20:56:05;;;;;;;50.92;38.03;;;10.20;99.90;;;;;;12498262;28;20632;-78
2024/03/13 21:02:07;;;;;;;42.67;31.23;;;10.10;99.90;;;;;;12523055;28;20505;-78
2024/03/13 21:08:09;;;;;;;44.83;29.65;;;10.20;99.90;;;;;;12523020;28;20041;-78
2024/03/13 21:14:11;;;;;;;44.97;30.52;;;10.20;99.90;;;;;;12524272;28;20068;-78
2024/03/13 21:20:17;;;;;;;40.75;30.55;;;10.20;99.90;;;;;;12584388;28;20029;-78
2024/03/13 21:26:19;;;;;;;44.13;38.00;;;10.20;99.90;;;;;;12577814;28;20075;-78
2024/03/13 21:32:21;;;;;;;40.83;36.47;;;10.20;99.90;;;;;;12576600;28;20123;-78
2024/03/13 21:38:23;;;;;;;40.63;36.03;;;10.20;99.90;;;;;;12541834;28;20408;-78
2024/03/13 21:44:26;;;;;;;38.80;34.72;;;10.20;99.90;;;;;;12505137;28;20132;-78
2024/03/13 21:50:29;;;;;;;32.90;28.10;;;10.20;99.90;;;;;;12517812;28;20077;-78
2024/03/13 21:56:33;;;;;;;29.00;25.10;;;10.20;99.90;;;;;;12531130;28;20527;-78
2024/03/13 22:02:35;;;;;;;31.35;26.92;;;10.20;99.90;;;;;;12555408;28;20060;-78
2024/03/13 22:08:37;;;;;;;32.17;27.38;;;10.20;99.90;;;;;;12601835;28;20029;-79
2024/03/13 22:14:39;;;;;;;33.33;29.77;;;10.20;99.90;;;;;;12589643;28;20032;-78
2024/03/13 22:20:44;;;;;;;35.35;28.52;;;10.20;99.90;;;;;;12564323;28;20033;-78
2024/03/13 22:26:46;;;;;;;32.97;28.95;;;10.20;99.90;;;;;;12554456;28;20057;-78
2024/03/13 22:32:49;;;;;;;33.42;27.27;;;10.20;99.90;;;;;;12521497;28;20060;-78
2024/03/13 22:38:51;;;;;;;33.33;27.48;;;10.20;99.90;;;;;;12522486;28;20548;-78
2024/03/13 22:44:53;;;;;;;27.67;24.45;;;10.30;99.90;;;;;;12533597;28;20100;-78
2024/03/13 22:50:55;;;;;;;25.52;22.90;;;10.20;99.90;;;;;;12509562;28;20498;-78
2024/03/13 22:56:57;;;;;;;25.90;23.20;;;10.20;99.90;;;;;;12514001;28;20063;-78
2024/03/13 23:02:59;;;;;;;25.00;22.13;;;10.20;99.90;;;;;;12532159;28;20053;-78
2024/03/13 23:09:01;;;;;;;23.98;21.38;;;10.20;99.90;;;;;;12520316;28;20052;-77
2024/03/13 23:15:05;;;;;;;24.05;21.60;;;10.10;99.90;;;;;;12508238;28;20083;-78
2024/03/13 23:21:07;;;;;;;22.55;20.30;;;10.10;99.90;;;;;;12516825;28;20045;-78
2024/03/13 23:27:09;;;;;;;22.15;19.83;;;10.10;99.90;;;;;;12501820;28;20136;-78
2024/03/13 23:33:12;;;;;;;22.77;20.38;;;10.10;99.90;;;;;;12539850;28;20053;-79
2024/03/13 23:39:23;;;;;;;21.42;19.13;;;10.10;99.90;;;;;;12533338;28;20053;-78
2024/03/13 23:45:26;;;;;;;22.73;20.33;;;10.10;99.90;;;;;;12524078;28;20088;-78
2024/03/13 23:51:29;;;;;;;22.98;20.42;;;10.10;99.90;;;;;;12521165;28;20049;-78
2024/03/13 23:57:31;;;;;;;21.98;19.15;;;10.10;99.90;;;;;;12555991;22;20151;-36
